Terminal Aerodrome Forecast
Issued by NWS

Home | Current Version | Previous Version | Text Only | Print | Product List | Glossary On
Versions: 1 2 3 4 5 6 7 8 9 10 11 12 13 14 15
000
FTUS45 KTFX 171930 AAA
TAFLWT
TAF AMD
KLWT 171930Z 1720/1818 30015G24KT P6SM VCSH SCT035 BKN100
      TEMPO 1720/1724 BKN035
     FM180000 27014G24KT P6SM VCSH FEW035 SCT200
      TEMPO 1800/1803 BKN035
     FM181200 26015G25KT P6SM FEW060 BKN250=

USA.gov is the U.S. government's official web portal to all federal, state and local government web resources and services.